sensor_id;sensor_type;location;lat;lon;timestamp;pressure;altitude;pressure_sealevel;temperature;humidity
5966;BME280;3009;43.224;27.976;2023-08-21T00:01:57;100295.69;;;26.42;35.52
5966;BME280;3009;43.224;27.976;2023-08-21T00:04:26;100294.16;;;26.41;35.58
5966;BME280;3009;43.224;27.976;2023-08-21T00:06:54;100295.34;;;26.40;35.07
5966;BME280;3009;43.224;27.976;2023-08-21T00:09:23;100303.91;;;26.42;35.38
5966;BME280;3009;43.224;27.976;2023-08-21T00:11:53;100301.19;;;26.42;35.44
5966;BME280;3009;43.224;27.976;2023-08-21T00:14:21;100300.41;;;26.41;35.18
5966;BME280;3009;43.224;27.976;2023-08-21T00:16:49;100296.41;;;26.46;34.61
5966;BME280;3009;43.224;27.976;2023-08-21T00:19:18;100287.66;;;26.51;34.66
5966;BME280;3009;43.224;27.976;2023-08-21T00:21:47;100295.31;;;26.63;34.42
5966;BME280;3009;43.224;27.976;2023-08-21T00:24:15;100292.03;;;26.72;33.91
5966;BME280;3009;43.224;27.976;2023-08-21T00:26:44;100289.69;;;26.70;34.06
5966;BME280;3009;43.224;27.976;2023-08-21T00:29:13;100290.50;;;26.71;34.05
5966;BME280;3009;43.224;27.976;2023-08-21T00:31:42;100289.66;;;26.74;33.87
5966;BME280;3009;43.224;27.976;2023-08-21T00:34:11;100292.81;;;26.73;33.97
5966;BME280;3009;43.224;27.976;2023-08-21T00:36:39;100286.47;;;26.76;34.06
5966;BME280;3009;43.224;27.976;2023-08-21T00:39:07;100281.81;;;26.73;33.84
5966;BME280;3009;43.224;27.976;2023-08-21T00:41:36;100288.94;;;26.70;33.96
5966;BME280;3009;43.224;27.976;2023-08-21T00:44:05;100291.56;;;26.77;33.51
5966;BME280;3009;43.224;27.976;2023-08-21T00:46:36;100293.50;;;26.77;33.83
5966;BME280;3009;43.224;27.976;2023-08-21T00:49:04;100289.28;;;26.72;34.07
5966;BME280;3009;43.224;27.976;2023-08-21T00:51:33;100284.56;;;26.73;34.07
5966;BME280;3009;43.224;27.976;2023-08-21T00:54:01;100285.16;;;26.60;35.05
5966;BME280;3009;43.224;27.976;2023-08-21T00:56:29;100286.97;;;26.47;35.23
5966;BME280;3009;43.224;27.976;2023-08-21T00:58:58;100285.91;;;26.41;35.54
5966;BME280;3009;43.224;27.976;2023-08-21T01:01:28;100287.31;;;26.25;36.57
5966;BME280;3009;43.224;27.976;2023-08-21T01:03:58;100285.53;;;26.15;37.28
5966;BME280;3009;43.224;27.976;2023-08-21T01:06:27;100285.66;;;26.08;37.58
5966;BME280;3009;43.224;27.976;2023-08-21T01:08:59;100289.94;;;26.09;37.71
5966;BME280;3009;43.224;27.976;2023-08-21T01:11:36;100292.06;;;25.97;38.35
5966;BME280;3009;43.224;27.976;2023-08-21T01:14:11;100286.16;;;25.99;38.64
5966;BME280;3009;43.224;27.976;2023-08-21T01:16:43;100295.19;;;25.99;38.54
5966;BME280;3009;43.224;27.976;2023-08-21T01:19:26;100287.03;;;25.92;38.84
5966;BME280;3009;43.224;27.976;2023-08-21T01:21:56;100298.03;;;25.92;38.42
5966;BME280;3009;43.224;27.976;2023-08-21T01:24:26;100289.72;;;25.96;38.42
5966;BME280;3009;43.224;27.976;2023-08-21T01:26:54;100289.00;;;25.92;38.41
5966;BME280;3009;43.224;27.976;2023-08-21T01:29:23;100282.38;;;25.89;38.71
5966;BME280;3009;43.224;27.976;2023-08-21T01:31:56;100292.53;;;25.92;38.63
5966;BME280;3009;43.224;27.976;2023-08-21T01:34:28;100287.75;;;25.96;38.48
5966;BME280;3009;43.224;27.976;2023-08-21T01:37:00;100286.66;;;25.90;38.98
5966;BME280;3009;43.224;27.976;2023-08-21T01:39:30;100287.13;;;25.85;39.24
5966;BME280;3009;43.224;27.976;2023-08-21T01:41:59;100282.25;;;25.96;38.50
5966;BME280;3009;43.224;27.976;2023-08-21T01:44:31;100288.38;;;26.08;38.18
5966;BME280;3009;43.224;27.976;2023-08-21T01:46:59;100304.09;;;26.07;38.25
5966;BME280;3009;43.224;27.976;2023-08-21T01:49:28;100292.38;;;26.03;38.69
5966;BME280;3009;43.224;27.976;2023-08-21T01:51:56;100290.06;;;25.98;38.50
5966;BME280;3009;43.224;27.976;2023-08-21T01:54:25;100284.56;;;25.98;38.41
5966;BME280;3009;43.224;27.976;2023-08-21T01:56:54;100280.56;;;26.06;37.95
5966;BME280;3009;43.224;27.976;2023-08-21T01:59:24;100283.25;;;26.10;38.27
5966;BME280;3009;43.224;27.976;2023-08-21T02:01:52;100283.72;;;26.05;38.47
5966;BME280;3009;43.224;27.976;2023-08-21T02:04:21;100278.94;;;26.09;38.39
5966;BME280;3009;43.224;27.976;2023-08-21T02:06:49;100285.28;;;26.06;38.51
5966;BME280;3009;43.224;27.976;2023-08-21T02:09:18;100277.03;;;26.06;38.37
5966;BME280;3009;43.224;27.976;2023-08-21T02:11:46;100282.06;;;26.11;38.35
5966;BME280;3009;43.224;27.976;2023-08-21T02:14:16;100274.91;;;26.17;38.10
5966;BME280;3009;43.224;27.976;2023-08-21T02:16:44;100293.41;;;26.13;38.25
5966;BME280;3009;43.224;27.976;2023-08-21T02:19:13;100282.78;;;26.15;38.38
5966;BME280;3009;43.224;27.976;2023-08-21T02:21:41;100279.44;;;26.27;38.08
5966;BME280;3009;43.224;27.976;2023-08-21T02:24:10;100276.97;;;26.33;37.87
5966;BME280;3009;43.224;27.976;2023-08-21T02:26:38;100276.09;;;26.40;37.72
5966;BME280;3009;43.224;27.976;2023-08-21T02:29:06;100271.16;;;26.51;37.15
5966;BME280;3009;43.224;27.976;2023-08-21T02:31:36;100270.19;;;26.61;36.82
5966;BME280;3009;43.224;27.976;2023-08-21T02:34:05;100280.34;;;26.64;36.59
5966;BME280;3009;43.224;27.976;2023-08-21T02:36:33;100278.00;;;26.66;36.22
5966;BME280;3009;43.224;27.976;2023-08-21T02:39:02;100267.34;;;26.68;36.35
5966;BME280;3009;43.224;27.976;2023-08-21T02:41:32;100271.28;;;26.67;36.35
5966;BME280;3009;43.224;27.976;2023-08-21T02:44:00;100272.50;;;26.66;36.99
5966;BME280;3009;43.224;27.976;2023-08-21T02:46:29;100269.00;;;26.62;37.04
5966;BME280;3009;43.224;27.976;2023-08-21T02:48:59;100277.34;;;26.59;37.32
5966;BME280;3009;43.224;27.976;2023-08-21T02:51:27;100286.06;;;26.53;38.10
5966;BME280;3009;43.224;27.976;2023-08-21T02:53:56;100273.69;;;26.42;38.65
5966;BME280;3009;43.224;27.976;2023-08-21T02:56:24;100280.13;;;26.31;39.11
5966;BME280;3009;43.224;27.976;2023-08-21T02:58:52;100282.78;;;26.15;40.16
5966;BME280;3009;43.224;27.976;2023-08-21T03:01:21;100287.66;;;26.04;41.02
5966;BME280;3009;43.224;27.976;2023-08-21T03:03:49;100288.22;;;25.91;41.29
5966;BME280;3009;43.224;27.976;2023-08-21T03:06:19;100295.47;;;25.78;42.19
5966;BME280;3009;43.224;27.976;2023-08-21T03:08:48;100291.47;;;25.55;43.31
5966;BME280;3009;43.224;27.976;2023-08-21T03:11:16;100290.72;;;25.51;43.25
5966;BME280;3009;43.224;27.976;2023-08-21T03:13:45;100300.94;;;25.51;43.60
5966;BME280;3009;43.224;27.976;2023-08-21T03:16:13;100293.69;;;25.37;44.32
5966;BME280;3009;43.224;27.976;2023-08-21T03:18:54;100290.47;;;25.42;44.88
5966;BME280;3009;43.224;27.976;2023-08-21T03:21:25;100296.94;;;25.24;45.57
5966;BME280;3009;43.224;27.976;2023-08-21T03:23:55;100302.44;;;25.24;45.45
5966;BME280;3009;43.224;27.976;2023-08-21T03:26:24;100302.66;;;25.03;46.78
5966;BME280;3009;43.224;27.976;2023-08-21T03:28:53;100299.19;;;24.99;47.73
5966;BME280;3009;43.224;27.976;2023-08-21T03:31:21;100294.19;;;24.90;48.23
5966;BME280;3009;43.224;27.976;2023-08-21T03:33:49;100304.75;;;24.91;48.35
5966;BME280;3009;43.224;27.976;2023-08-21T03:36:18;100308.59;;;24.98;49.11
5966;BME280;3009;43.224;27.976;2023-08-21T03:38:48;100310.13;;;25.02;49.23
5966;BME280;3009;43.224;27.976;2023-08-21T03:41:16;100307.78;;;25.01;50.01
5966;BME280;3009;43.224;27.976;2023-08-21T03:43:45;100311.59;;;25.10;49.66
5966;BME280;3009;43.224;27.976;2023-08-21T03:46:13;100309.59;;;25.15;49.95
5966;BME280;3009;43.224;27.976;2023-08-21T03:48:41;100307.66;;;25.11;51.28
5966;BME280;3009;43.224;27.976;2023-08-21T03:51:10;100304.78;;;25.22;51.83
5966;BME280;3009;43.224;27.976;2023-08-21T03:53:38;100301.91;;;25.37;51.43
5966;BME280;3009;43.224;27.976;2023-08-21T03:56:08;100310.09;;;25.40;51.42
5966;BME280;3009;43.224;27.976;2023-08-21T03:58:36;100303.97;;;25.60;50.80
5966;BME280;3009;43.224;27.976;2023-08-21T04:01:05;100313.16;;;25.46;51.48
5966;BME280;3009;43.224;27.976;2023-08-21T04:03:33;100312.19;;;25.25;53.00
5966;BME280;3009;43.224;27.976;2023-08-21T04:06:01;100325.19;;;25.21;53.62
5966;BME280;3009;43.224;27.976;2023-08-21T04:08:30;100330.47;;;25.43;53.18
5966;BME280;3009;43.224;27.976;2023-08-21T04:10:58;100329.56;;;25.50;53.03
5966;BME280;3009;43.224;27.976;2023-08-21T04:13:29;100331.63;;;25.42;53.93
5966;BME280;3009;43.224;27.976;2023-08-21T04:15:57;100329.91;;;25.55;52.97
5966;BME280;3009;43.224;27.976;2023-08-21T04:18:26;100323.81;;;25.71;51.98
5966;BME280;3009;43.224;27.976;2023-08-21T04:21:07;100328.78;;;25.80;51.22
5966;BME280;3009;43.224;27.976;2023-08-21T04:23:35;100324.03;;;25.84;51.28
5966;BME280;3009;43.224;27.976;2023-08-21T04:26:04;100324.94;;;26.05;50.35
5966;BME280;3009;43.224;27.976;2023-08-21T04:28:35;100328.53;;;26.25;49.59
5966;BME280;3009;43.224;27.976;2023-08-21T04:31:04;100331.66;;;26.51;48.06
5966;BME280;3009;43.224;27.976;2023-08-21T04:33:33;100326.88;;;26.79;47.40
5966;BME280;3009;43.224;27.976;2023-08-21T04:36:02;100331.91;;;26.84;46.92
5966;BME280;3009;43.224;27.976;2023-08-21T04:38:30;100320.50;;;27.05;46.61
5966;BME280;3009;43.224;27.976;2023-08-21T04:41:05;100328.56;;;27.36;45.98
5966;BME280;3009;43.224;27.976;2023-08-21T04:43:36;100329.09;;;27.48;45.91
5966;BME280;3009;43.224;27.976;2023-08-21T04:46:04;100333.50;;;27.45;46.33
5966;BME280;3009;43.224;27.976;2023-08-21T04:48:34;100338.88;;;27.69;45.51
5966;BME280;3009;43.224;27.976;2023-08-21T04:51:03;100329.06;;;28.04;44.23
5966;BME280;3009;43.224;27.976;2023-08-21T04:53:31;100334.91;;;28.56;43.10
5966;BME280;3009;43.224;27.976;2023-08-21T04:55:59;100329.50;;;28.98;42.63
5966;BME280;3009;43.224;27.976;2023-08-21T04:58:28;100324.78;;;29.66;40.84
5966;BME280;3009;43.224;27.976;2023-08-21T05:00:58;100332.91;;;29.86;39.89
5966;BME280;3009;43.224;27.976;2023-08-21T05:03:27;100331.09;;;30.31;38.68
5966;BME280;3009;43.224;27.976;2023-08-21T05:05:55;100329.28;;;30.37;39.27
5966;BME280;3009;43.224;27.976;2023-08-21T05:08:25;100340.88;;;30.71;37.82
5966;BME280;3009;43.224;27.976;2023-08-21T05:10:55;100328.31;;;30.44;38.18
5966;BME280;3009;43.224;27.976;2023-08-21T05:13:24;100340.97;;;30.67;37.29
5966;BME280;3009;43.224;27.976;2023-08-21T05:15:53;100343.53;;;31.19;36.60
5966;BME280;3009;43.224;27.976;2023-08-21T05:18:24;100333.63;;;30.51;37.68
5966;BME280;3009;43.224;27.976;2023-08-21T05:20:55;100339.72;;;30.20;37.97
5966;BME280;3009;43.224;27.976;2023-08-21T05:23:23;100349.56;;;30.47;37.50
5966;BME280;3009;43.224;27.976;2023-08-21T05:25:52;100352.94;;;30.64;37.19
5966;BME280;3009;43.224;27.976;2023-08-21T05:28:20;100347.53;;;30.61;37.25
5966;BME280;3009;43.224;27.976;2023-08-21T05:30:49;100351.25;;;30.19;36.75
5966;BME280;3009;43.224;27.976;2023-08-21T05:33:17;100354.44;;;30.30;37.33
5966;BME280;3009;43.224;27.976;2023-08-21T05:35:47;100349.97;;;30.58;37.15
5966;BME280;3009;43.224;27.976;2023-08-21T05:38:15;100355.13;;;31.26;36.61
5966;BME280;3009;43.224;27.976;2023-08-21T05:40:43;100363.00;;;31.82;35.97
5966;BME280;3009;43.224;27.976;2023-08-21T05:43:12;100353.63;;;32.38;35.27
5966;BME280;3009;43.224;27.976;2023-08-21T05:45:40;100356.25;;;33.34;34.43
5966;BME280;3009;43.224;27.976;2023-08-21T05:48:08;100352.97;;;34.31;32.97
5966;BME280;3009;43.224;27.976;2023-08-21T05:50:37;100352.19;;;35.23;30.95
5966;BME280;3009;43.224;27.976;2023-08-21T05:53:06;100361.50;;;35.20;31.14
5966;BME280;3009;43.224;27.976;2023-08-21T05:55:36;100359.09;;;34.98;29.78
5966;BME280;3009;43.224;27.976;2023-08-21T05:58:05;100371.31;;;36.11;30.09
5966;BME280;3009;43.224;27.976;2023-08-21T06:00:33;100374.44;;;37.53;29.32
5966;BME280;3009;43.224;27.976;2023-08-21T06:03:02;100381.53;;;38.84;28.35
5966;BME280;3009;43.224;27.976;2023-08-21T06:05:31;100376.19;;;38.92;27.10
5966;BME280;3009;43.224;27.976;2023-08-21T06:07:59;100374.38;;;38.72;27.01
5966;BME280;3009;43.224;27.976;2023-08-21T06:10:31;100366.44;;;38.64;26.10
5966;BME280;3009;43.224;27.976;2023-08-21T06:12:59;100367.47;;;37.37;26.29
5966;BME280;3009;43.224;27.976;2023-08-21T06:15:27;100372.09;;;36.73;27.18
5966;BME280;3009;43.224;27.976;2023-08-21T06:17:57;100383.59;;;36.75;27.07
5966;BME280;3009;43.224;27.976;2023-08-21T06:20:25;100378.28;;;36.36;27.47
5966;BME280;3009;43.224;27.976;2023-08-21T06:22:54;100387.00;;;38.01;25.70
5966;BME280;3009;43.224;27.976;2023-08-21T06:25:22;100390.19;;;36.98;26.24
5966;BME280;3009;43.224;27.976;2023-08-21T06:27:52;100386.03;;;35.46;28.45
5966;BME280;3009;43.224;27.976;2023-08-21T06:30:25;100405.72;;;35.72;28.42
5966;BME280;3009;43.224;27.976;2023-08-21T06:32:54;100399.50;;;36.48;26.94
5966;BME280;3009;43.224;27.976;2023-08-21T06:35:22;100398.41;;;36.81;26.65
5966;BME280;3009;43.224;27.976;2023-08-21T06:37:51;100402.72;;;37.93;27.48
5966;BME280;3009;43.224;27.976;2023-08-21T06:40:21;100400.22;;;39.15;25.74
5966;BME280;3009;43.224;27.976;2023-08-21T06:42:49;100401.47;;;39.99;25.00
5966;BME280;3009;43.224;27.976;2023-08-21T06:45:21;100406.13;;;40.61;24.04
5966;BME280;3009;43.224;27.976;2023-08-21T06:47:49;100406.91;;;41.03;23.48
5966;BME280;3009;43.224;27.976;2023-08-21T06:50:18;100399.69;;;41.50;23.52
5966;BME280;3009;43.224;27.976;2023-08-21T06:52:46;100405.81;;;40.00;24.82
5966;BME280;3009;43.224;27.976;2023-08-21T06:55:15;100402.38;;;40.95;24.35
5966;BME280;3009;43.224;27.976;2023-08-21T06:57:43;100409.75;;;41.39;23.88
5966;BME280;3009;43.224;27.976;2023-08-21T07:00:13;100401.47;;;41.17;23.90
5966;BME280;3009;43.224;27.976;2023-08-21T07:02:42;100407.31;;;41.19;23.76
5966;BME280;3009;43.224;27.976;2023-08-21T07:05:11;100406.56;;;41.18;23.93
5966;BME280;3009;43.224;27.976;2023-08-21T07:07:40;100415.69;;;40.94;24.46
5966;BME280;3009;43.224;27.976;2023-08-21T07:10:09;100418.06;;;40.79;24.58
5966;BME280;3009;43.224;27.976;2023-08-21T07:12:38;100412.69;;;41.22;24.20
5966;BME280;3009;43.224;27.976;2023-08-21T07:15:08;100410.44;;;41.15;24.15
5966;BME280;3009;43.224;27.976;2023-08-21T07:17:36;100413.75;;;41.14;23.95
5966;BME280;3009;43.224;27.976;2023-08-21T07:20:07;100419.28;;;40.83;24.39
5966;BME280;3009;43.224;27.976;2023-08-21T07:22:36;100407.41;;;40.60;24.77
5966;BME280;3009;43.224;27.976;2023-08-21T07:25:05;100411.72;;;40.67;24.74
5966;BME280;3009;43.224;27.976;2023-08-21T07:27:34;100410.88;;;40.78;24.60
5966;BME280;3009;43.224;27.976;2023-08-21T07:30:02;100409.66;;;39.75;25.51
5966;BME280;3009;43.224;27.976;2023-08-21T07:32:32;100413.72;;;39.85;25.97
5966;BME280;3009;43.224;27.976;2023-08-21T07:34:59;100405.59;;;39.64;25.97
5966;BME280;3009;43.224;27.976;2023-08-21T07:37:29;100395.31;;;39.05;27.17
5966;BME280;3009;43.224;27.976;2023-08-21T07:39:57;100405.47;;;37.87;28.54
5966;BME280;3009;43.224;27.976;2023-08-21T07:42:26;100405.16;;;36.95;29.64
5966;BME280;3009;43.224;27.976;2023-08-21T07:44:55;100402.94;;;36.23;31.03
5966;BME280;3009;43.224;27.976;2023-08-21T07:47:23;100396.63;;;35.42;32.38
5966;BME280;3009;43.224;27.976;2023-08-21T07:49:52;100400.41;;;34.85;33.32
5966;BME280;3009;43.224;27.976;2023-08-21T07:52:20;100390.72;;;34.47;34.33
5966;BME280;3009;43.224;27.976;2023-08-21T07:54:52;100398.91;;;34.26;34.74
5966;BME280;3009;43.224;27.976;2023-08-21T07:57:21;100402.59;;;33.89;35.47
5966;BME280;3009;43.224;27.976;2023-08-21T07:59:49;100401.72;;;33.74;35.63
5966;BME280;3009;43.224;27.976;2023-08-21T08:02:20;100386.97;;;33.49;36.04
5966;BME280;3009;43.224;27.976;2023-08-21T08:04:48;100396.53;;;33.48;36.11
5966;BME280;3009;43.224;27.976;2023-08-21T08:07:17;100392.38;;;33.44;36.22
5966;BME280;3009;43.224;27.976;2023-08-21T08:09:45;100396.38;;;33.52;36.17
5966;BME280;3009;43.224;27.976;2023-08-21T08:12:16;100398.56;;;33.38;36.07
5966;BME280;3009;43.224;27.976;2023-08-21T08:14:44;100393.63;;;33.24;36.23
5966;BME280;3009;43.224;27.976;2023-08-21T08:17:13;100398.25;;;33.27;36.57
5966;BME280;3009;43.224;27.976;2023-08-21T08:19:41;100398.56;;;33.38;36.11
5966;BME280;3009;43.224;27.976;2023-08-21T08:22:10;100401.00;;;33.36;36.44
5966;BME280;3009;43.224;27.976;2023-08-21T08:24:38;100394.53;;;33.39;36.26
5966;BME280;3009;43.224;27.976;2023-08-21T08:27:07;100401.03;;;33.46;36.65
5966;BME280;3009;43.224;27.976;2023-08-21T08:29:38;100408.41;;;33.58;35.27
5966;BME280;3009;43.224;27.976;2023-08-21T08:32:06;100399.78;;;33.47;35.48
5966;BME280;3009;43.224;27.976;2023-08-21T08:34:35;100403.44;;;33.62;30.59
5966;BME280;3009;43.224;27.976;2023-08-21T08:37:03;100401.81;;;33.89;27.67
5966;BME280;3009;43.224;27.976;2023-08-21T08:39:31;100390.78;;;34.04;26.94
5966;BME280;3009;43.224;27.976;2023-08-21T08:42:05;100389.00;;;34.25;26.77
5966;BME280;3009;43.224;27.976;2023-08-21T08:44:35;100389.81;;;34.65;27.43
5966;BME280;3009;43.224;27.976;2023-08-21T08:47:05;100388.94;;;34.83;27.30
5966;BME280;3009;43.224;27.976;2023-08-21T08:49:34;100374.06;;;34.86;26.25
5966;BME280;3009;43.224;27.976;2023-08-21T08:52:03;100380.31;;;34.81;26.91
5966;BME280;3009;43.224;27.976;2023-08-21T08:54:32;100373.09;;;34.89;28.04
5966;BME280;3009;43.224;27.976;2023-08-21T08:57:02;100371.94;;;34.81;27.89
5966;BME280;3009;43.224;27.976;2023-08-21T08:59:32;100365.84;;;34.67;27.98
5966;BME280;3009;43.224;27.976;2023-08-21T09:02:00;100370.72;;;34.96;27.70
5966;BME280;3009;43.224;27.976;2023-08-21T09:04:30;100369.66;;;34.79;27.83
5966;BME280;3009;43.224;27.976;2023-08-21T09:07:08;100366.19;;;34.84;27.69
5966;BME280;3009;43.224;27.976;2023-08-21T09:09:40;100360.06;;;35.10;27.94
5966;BME280;3009;43.224;27.976;2023-08-21T09:12:13;100363.81;;;35.22;27.18
5966;BME280;3009;43.224;27.976;2023-08-21T09:14:43;100362.28;;;35.21;27.47
5966;BME280;3009;43.224;27.976;2023-08-21T09:17:11;100369.50;;;35.12;26.87
5966;BME280;3009;43.224;27.976;2023-08-21T09:19:42;100363.25;;;35.18;26.96
5966;BME280;3009;43.224;27.976;2023-08-21T09:22:12;100368.38;;;35.34;26.88
5966;BME280;3009;43.224;27.976;2023-08-21T09:24:41;100361.78;;;35.22;26.84
5966;BME280;3009;43.224;27.976;2023-08-21T09:27:27;100359.66;;;34.87;27.39
5966;BME280;3009;43.224;27.976;2023-08-21T09:29:55;100358.84;;;34.72;27.67
5966;BME280;3009;43.224;27.976;2023-08-21T09:32:25;100361.69;;;34.87;27.89
5966;BME280;3009;43.224;27.976;2023-08-21T09:34:55;100365.84;;;34.67;27.70
5966;BME280;3009;43.224;27.976;2023-08-21T09:37:28;100359.59;;;34.72;27.37
5966;BME280;3009;43.224;27.976;2023-08-21T09:40:01;100369.28;;;35.01;27.27
5966;BME280;3009;43.224;27.976;2023-08-21T09:42:34;100356.00;;;34.57;27.72
5966;BME280;3009;43.224;27.976;2023-08-21T09:45:04;100359.88;;;34.99;27.50
5966;BME280;3009;43.224;27.976;2023-08-21T09:47:33;100362.41;;;35.41;27.29
5966;BME280;3009;43.224;27.976;2023-08-21T09:50:03;100363.94;;;35.57;26.82
5966;BME280;3009;43.224;27.976;2023-08-21T09:52:32;100361.44;;;35.59;27.36
5966;BME280;3009;43.224;27.976;2023-08-21T09:55:05;100359.50;;;35.65;26.60
5966;BME280;3009;43.224;27.976;2023-08-21T09:57:33;100372.59;;;35.29;26.80
5966;BME280;3009;43.224;27.976;2023-08-21T10:00:04;100362.13;;;35.54;26.26
5966;BME280;3009;43.224;27.976;2023-08-21T10:02:42;100368.72;;;35.57;26.56
5966;BME280;3009;43.224;27.976;2023-08-21T10:05:17;100357.59;;;35.42;26.01
5966;BME280;3009;43.224;27.976;2023-08-21T10:07:47;100366.22;;;34.99;26.65
5966;BME280;3009;43.224;27.976;2023-08-21T10:10:17;100361.31;;;34.94;26.92
5966;BME280;3009;43.224;27.976;2023-08-21T10:12:47;100351.03;;;35.00;27.27
5966;BME280;3009;43.224;27.976;2023-08-21T10:15:16;100355.69;;;35.33;27.22
5966;BME280;3009;43.224;27.976;2023-08-21T10:17:44;100357.59;;;35.42;26.78
5966;BME280;3009;43.224;27.976;2023-08-21T10:20:13;100352.97;;;35.54;26.26
5966;BME280;3009;43.224;27.976;2023-08-21T10:22:53;100351.84;;;35.30;26.74
5966;BME280;3009;43.224;27.976;2023-08-21T10:25:24;100346.28;;;35.30;26.84
5966;BME280;3009;43.224;27.976;2023-08-21T10:27:57;100352.22;;;35.38;26.65
5966;BME280;3009;43.224;27.976;2023-08-21T10:30:27;100342.53;;;35.69;26.19
5966;BME280;3009;43.224;27.976;2023-08-21T10:32:57;100347.75;;;35.61;25.78
5966;BME280;3009;43.224;27.976;2023-08-21T10:35:29;100351.59;;;35.64;26.09
5966;BME280;3009;43.224;27.976;2023-08-21T10:38:12;100349.00;;;35.75;25.75
5966;BME280;3009;43.224;27.976;2023-08-21T10:41:05;100347.38;;;35.83;25.04
5966;BME280;3009;43.224;27.976;2023-08-21T10:43:38;100351.88;;;35.66;24.41
5966;BME280;3009;43.224;27.976;2023-08-21T10:46:07;100342.03;;;35.50;25.47
5966;BME280;3009;43.224;27.976;2023-08-21T10:48:36;100336.94;;;35.48;25.26
5966;BME280;3009;43.224;27.976;2023-08-21T10:51:06;100351.03;;;35.60;25.20
5966;BME280;3009;43.224;27.976;2023-08-21T10:53:37;100346.81;;;35.49;25.98
5966;BME280;3009;43.224;27.976;2023-08-21T10:56:06;100337.03;;;35.39;27.78
5966;BME280;3009;43.224;27.976;2023-08-21T10:58:38;100337.97;;;35.06;29.09
5966;BME280;3009;43.224;27.976;2023-08-21T11:01:07;100345.41;;;34.70;34.09
5966;BME280;3009;43.224;27.976;2023-08-21T11:03:38;100339.22;;;34.27;44.17
5966;BME280;3009;43.224;27.976;2023-08-21T11:06:08;100333.69;;;34.18;43.30
5966;BME280;3009;43.224;27.976;2023-08-21T11:08:39;100337.28;;;34.09;44.54
5966;BME280;3009;43.224;27.976;2023-08-21T11:11:10;100334.31;;;33.88;46.14
5966;BME280;3009;43.224;27.976;2023-08-21T11:13:40;100332.53;;;33.76;49.45
5966;BME280;3009;43.224;27.976;2023-08-21T11:16:11;100345.06;;;33.62;50.25
5966;BME280;3009;43.224;27.976;2023-08-21T11:18:41;100329.69;;;33.43;54.30
5966;BME280;3009;43.224;27.976;2023-08-21T11:21:11;100331.72;;;33.33;56.91
5966;BME280;3009;43.224;27.976;2023-08-21T11:23:41;100343.31;;;33.31;56.69
5966;BME280;3009;43.224;27.976;2023-08-21T11:26:11;100333.56;;;33.36;61.94
5966;BME280;3009;43.224;27.976;2023-08-21T11:28:48;100331.91;;;33.20;60.63
5966;BME280;3009;43.224;27.976;2023-08-21T11:31:16;100344.41;;;33.25;63.10
5966;BME280;3009;43.224;27.976;2023-08-21T11:33:49;100342.38;;;33.16;65.68
5966;BME280;3009;43.224;27.976;2023-08-21T11:36:18;100343.03;;;33.01;63.40
5966;BME280;3009;43.224;27.976;2023-08-21T11:38:59;100350.13;;;32.65;66.42
5966;BME280;3009;43.224;27.976;2023-08-21T11:41:28;100352.88;;;32.56;68.37
5966;BME280;3009;43.224;27.976;2023-08-21T11:44:02;100351.44;;;31.83;87.39
5966;BME280;3009;43.224;27.976;2023-08-21T11:46:31;100355.13;;;31.80;97.44
5966;BME280;3009;43.224;27.976;2023-08-21T11:49:00;100354.81;;;31.47;100.00
5966;BME280;3009;43.224;27.976;2023-08-21T11:51:29;100354.09;;;31.55;92.38
5966;BME280;3009;43.224;27.976;2023-08-21T11:53:58;100361.41;;;31.49;93.37
5966;BME280;3009;43.224;27.976;2023-08-21T11:56:32;100349.25;;;31.47;91.65
5966;BME280;3009;43.224;27.976;2023-08-21T11:59:00;100348.16;;;31.44;94.29
5966;BME280;3009;43.224;27.976;2023-08-21T12:01:33;100353.25;;;31.23;95.08
5966;BME280;3009;43.224;27.976;2023-08-21T12:04:14;100345.53;;;31.18;92.28
5966;BME280;3009;43.224;27.976;2023-08-21T12:06:44;100345.84;;;31.20;89.46
5966;BME280;3009;43.224;27.976;2023-08-21T12:09:13;100347.47;;;31.08;87.34
5966;BME280;3009;43.224;27.976;2023-08-21T12:11:42;100351.44;;;31.30;85.19
5966;BME280;3009;43.224;27.976;2023-08-21T12:14:10;100349.19;;;31.59;82.14
5966;BME280;3009;43.224;27.976;2023-08-21T12:16:39;100352.31;;;31.71;81.67
5966;BME280;3009;43.224;27.976;2023-08-21T12:19:07;100356.31;;;31.48;87.02
5966;BME280;3009;43.224;27.976;2023-08-21T12:21:36;100355.41;;;31.51;85.40
5966;BME280;3009;43.224;27.976;2023-08-21T12:24:05;100358.69;;;31.27;88.37
5966;BME280;3009;43.224;27.976;2023-08-21T12:26:35;100363.31;;;31.08;94.74
5966;BME280;3009;43.224;27.976;2023-08-21T12:29:16;100364.94;;;31.18;91.76
5966;BME280;3009;43.224;27.976;2023-08-21T12:31:44;100363.72;;;31.19;91.23
5966;BME280;3009;43.224;27.976;2023-08-21T12:34:14;100353.78;;;31.09;91.16
5966;BME280;3009;43.224;27.976;2023-08-21T12:36:42;100352.88;;;31.12;90.76
5966;BME280;3009;43.224;27.976;2023-08-21T12:39:10;100354.88;;;30.77;94.21
5966;BME280;3009;43.224;27.976;2023-08-21T12:41:40;100347.03;;;30.75;96.14
5966;BME280;3009;43.224;27.976;2023-08-21T12:44:09;100348.59;;;30.76;95.57
5966;BME280;3009;43.224;27.976;2023-08-21T12:46:37;100364.38;;;30.88;94.71
5966;BME280;3009;43.224;27.976;2023-08-21T12:49:06;100354.97;;;30.86;93.29
5966;BME280;3009;43.224;27.976;2023-08-21T12:51:34;100360.25;;;30.93;92.50
5966;BME280;3009;43.224;27.976;2023-08-21T12:54:03;100356.50;;;31.00;90.32
5966;BME280;3009;43.224;27.976;2023-08-21T12:56:32;100361.25;;;30.99;80.81
5966;BME280;3009;43.224;27.976;2023-08-21T12:59:02;100356.50;;;31.00;79.56
5966;BME280;3009;43.224;27.976;2023-08-21T13:01:31;100354.09;;;31.11;78.65
5966;BME280;3009;43.224;27.976;2023-08-21T13:04:01;100356.31;;;31.16;80.22
5966;BME280;3009;43.224;27.976;2023-08-21T13:06:30;100351.72;;;31.22;81.23
5966;BME280;3009;43.224;27.976;2023-08-21T13:08:58;100356.53;;;31.31;84.26
5966;BME280;3009;43.224;27.976;2023-08-21T13:11:27;100353.06;;;31.40;85.57
5966;BME280;3009;43.224;27.976;2023-08-21T13:13:56;100352.81;;;31.25;83.02